sensor_id;sensor_type;location;lat;lon;timestamp;temperature;humidity
16958;DHT22;8595;52.542;11.974;2023-02-22T00:01:41;9.80;99.90
16958;DHT22;8595;52.542;11.974;2023-02-22T00:04:15;9.80;99.90
16958;DHT22;8595;52.542;11.974;2023-02-22T00:06:46;9.80;99.90
16958;DHT22;8595;52.542;11.974;2023-02-22T00:09:12;9.80;99.90
16958;DHT22;8595;52.542;11.974;2023-02-22T00:11:46;9.80;99.90
16958;DHT22;8595;52.542;11.974;2023-02-22T00:14:14;9.80;99.90
16958;DHT22;8595;52.542;11.974;2023-02-22T00:16:44;9.80;99.90
16958;DHT22;8595;52.542;11.974;2023-02-22T00:19:12;9.70;99.90
16958;DHT22;8595;52.542;11.974;2023-02-22T00:21:39;9.70;99.90
16958;DHT22;8595;52.542;11.974;2023-02-22T00:24:06;9.70;99.90
16958;DHT22;8595;52.542;11.974;2023-02-22T00:26:51;9.70;99.90
16958;DHT22;8595;52.542;11.974;2023-02-22T00:29:20;9.70;99.90
16958;DHT22;8595;52.542;11.974;2023-02-22T00:31:48;9.70;99.90
16958;DHT22;8595;52.542;11.974;2023-02-22T00:34:16;9.70;99.90
16958;DHT22;8595;52.542;11.974;2023-02-22T00:36:46;9.60;99.90
16958;DHT22;8595;52.542;11.974;2023-02-22T00:39:13;9.80;99.90
16958;DHT22;8595;52.542;11.974;2023-02-22T00:41:40;9.80;99.90
16958;DHT22;8595;52.542;11.974;2023-02-22T00:44:12;9.80;99.90
16958;DHT22;8595;52.542;11.974;2023-02-22T00:46:39;9.80;99.90
16958;DHT22;8595;52.542;11.974;2023-02-22T00:49:06;9.80;99.90
16958;DHT22;8595;52.542;11.974;2023-02-22T00:51:32;9.80;99.90
16958;DHT22;8595;52.542;11.974;2023-02-22T00:54:03;9.70;99.90
16958;DHT22;8595;52.542;11.974;2023-02-22T00:56:32;9.70;99.90
16958;DHT22;8595;52.542;11.974;2023-02-22T00:58:58;9.70;99.90
16958;DHT22;8595;52.542;11.974;2023-02-22T01:01:27;9.60;99.90
16958;DHT22;8595;52.542;11.974;2023-02-22T01:03:56;9.60;99.90
16958;DHT22;8595;52.542;11.974;2023-02-22T01:06:23;9.60;99.90
16958;DHT22;8595;52.542;11.974;2023-02-22T01:08:51;9.50;99.90
16958;DHT22;8595;52.542;11.974;2023-02-22T01:11:18;9.50;99.90
16958;DHT22;8595;52.542;11.974;2023-02-22T01:13:46;9.50;99.90
16958;DHT22;8595;52.542;11.974;2023-02-22T01:16:13;9.40;99.90
16958;DHT22;8595;52.542;11.974;2023-02-22T01:18:41;9.30;99.90
16958;DHT22;8595;52.542;11.974;2023-02-22T01:21:09;9.30;99.90
16958;DHT22;8595;52.542;11.974;2023-02-22T01:23:36;9.30;99.90
16958;DHT22;8595;52.542;11.974;2023-02-22T01:26:06;9.30;99.90
16958;DHT22;8595;52.542;11.974;2023-02-22T01:28:33;9.30;99.90
16958;DHT22;8595;52.542;11.974;2023-02-22T01:30:59;9.30;99.90
16958;DHT22;8595;52.542;11.974;2023-02-22T01:33:27;9.30;99.90
16958;DHT22;8595;52.542;11.974;2023-02-22T01:35:56;9.30;99.90
16958;DHT22;8595;52.542;11.974;2023-02-22T01:38:24;9.30;99.90
16958;DHT22;8595;52.542;11.974;2023-02-22T01:40:51;9.30;99.90
16958;DHT22;8595;52.542;11.974;2023-02-22T01:43:22;9.30;99.90
16958;DHT22;8595;52.542;11.974;2023-02-22T01:45:54;9.40;99.90
16958;DHT22;8595;52.542;11.974;2023-02-22T01:48:29;9.30;99.90
16958;DHT22;8595;52.542;11.974;2023-02-22T01:51:01;9.30;99.90
16958;DHT22;8595;52.542;11.974;2023-02-22T01:53:37;9.30;99.90
16958;DHT22;8595;52.542;11.974;2023-02-22T01:56:06;9.30;99.90
16958;DHT22;8595;52.542;11.974;2023-02-22T01:58:35;9.40;99.90
16958;DHT22;8595;52.542;11.974;2023-02-22T02:01:04;9.40;99.90
16958;DHT22;8595;52.542;11.974;2023-02-22T02:03:34;9.40;99.90
16958;DHT22;8595;52.542;11.974;2023-02-22T02:06:06;9.30;99.90
16958;DHT22;8595;52.542;11.974;2023-02-22T02:11:38;9.30;99.90
16958;DHT22;8595;52.542;11.974;2023-02-22T02:12:03;9.30;99.90
16958;DHT22;8595;52.542;11.974;2023-02-22T02:14:31;9.40;99.90
16958;DHT22;8595;52.542;11.974;2023-02-22T02:16:58;9.40;99.90
16958;DHT22;8595;52.542;11.974;2023-02-22T02:19:34;9.40;99.90
16958;DHT22;8595;52.542;11.974;2023-02-22T02:28:36;9.20;99.90
16958;DHT22;8595;52.542;11.974;2023-02-22T02:31:18;9.20;99.90
16958;DHT22;8595;52.542;11.974;2023-02-22T02:33:54;9.20;99.90
16958;DHT22;8595;52.542;11.974;2023-02-22T02:36:30;9.30;99.90
16958;DHT22;8595;52.542;11.974;2023-02-22T02:39:06;9.40;99.90
16958;DHT22;8595;52.542;11.974;2023-02-22T02:41:38;9.30;99.90
16958;DHT22;8595;52.542;11.974;2023-02-22T02:44:10;9.40;99.90
16958;DHT22;8595;52.542;11.974;2023-02-22T02:46:41;9.40;99.90
16958;DHT22;8595;52.542;11.974;2023-02-22T02:49:14;9.30;99.90
16958;DHT22;8595;52.542;11.974;2023-02-22T02:51:47;9.30;99.90
16958;DHT22;8595;52.542;11.974;2023-02-22T02:54:15;9.20;99.90
16958;DHT22;8595;52.542;11.974;2023-02-22T02:56:42;9.30;99.90
16958;DHT22;8595;52.542;11.974;2023-02-22T02:59:23;9.30;99.90
16958;DHT22;8595;52.542;11.974;2023-02-22T03:02:00;9.40;99.90
16958;DHT22;8595;52.542;11.974;2023-02-22T03:04:40;9.40;99.90
16958;DHT22;8595;52.542;11.974;2023-02-22T03:07:27;9.30;99.90
16958;DHT22;8595;52.542;11.974;2023-02-22T03:10:24;9.30;99.90
16958;DHT22;8595;52.542;11.974;2023-02-22T03:12:59;9.30;99.90
16958;DHT22;8595;52.542;11.974;2023-02-22T03:15:36;9.20;99.90
16958;DHT22;8595;52.542;11.974;2023-02-22T03:18:16;9.20;99.90
16958;DHT22;8595;52.542;11.974;2023-02-22T03:20:58;9.30;99.90
16958;DHT22;8595;52.542;11.974;2023-02-22T03:23:28;9.10;99.90
16958;DHT22;8595;52.542;11.974;2023-02-22T03:26:00;9.10;99.90
16958;DHT22;8595;52.542;11.974;2023-02-22T03:28:32;9.10;99.90
16958;DHT22;8595;52.542;11.974;2023-02-22T03:31:03;9.20;99.90
16958;DHT22;8595;52.542;11.974;2023-02-22T03:33:34;9.10;99.90
16958;DHT22;8595;52.542;11.974;2023-02-22T03:36:10;9.10;99.90
16958;DHT22;8595;52.542;11.974;2023-02-22T03:38:39;9.10;99.90
16958;DHT22;8595;52.542;11.974;2023-02-22T03:41:09;9.10;99.90
16958;DHT22;8595;52.542;11.974;2023-02-22T03:43:40;9.00;99.90
16958;DHT22;8595;52.542;11.974;2023-02-22T03:46:10;9.10;99.90
16958;DHT22;8595;52.542;11.974;2023-02-22T03:48:42;9.10;99.90
16958;DHT22;8595;52.542;11.974;2023-02-22T03:51:13;9.00;99.90
16958;DHT22;8595;52.542;11.974;2023-02-22T03:53:42;9.00;99.90
16958;DHT22;8595;52.542;11.974;2023-02-22T03:56:12;9.00;99.90
16958;DHT22;8595;52.542;11.974;2023-02-22T03:58:43;8.90;99.90
16958;DHT22;8595;52.542;11.974;2023-02-22T04:01:13;8.90;99.90
16958;DHT22;8595;52.542;11.974;2023-02-22T04:03:40;8.80;99.90
16958;DHT22;8595;52.542;11.974;2023-02-22T04:06:08;8.80;99.90
16958;DHT22;8595;52.542;11.974;2023-02-22T04:08:38;8.80;99.90
16958;DHT22;8595;52.542;11.974;2023-02-22T04:11:05;8.80;99.90
16958;DHT22;8595;52.542;11.974;2023-02-22T04:13:31;8.80;99.90
16958;DHT22;8595;52.542;11.974;2023-02-22T04:15:59;8.80;99.90
16958;DHT22;8595;52.542;11.974;2023-02-22T04:18:26;8.80;99.90
16958;DHT22;8595;52.542;11.974;2023-02-22T04:20:53;8.80;99.90
16958;DHT22;8595;52.542;11.974;2023-02-22T04:23:20;8.90;99.90
16958;DHT22;8595;52.542;11.974;2023-02-22T04:25:48;8.80;99.90
16958;DHT22;8595;52.542;11.974;2023-02-22T04:28:15;8.80;99.90
16958;DHT22;8595;52.542;11.974;2023-02-22T04:30:42;8.90;99.90
16958;DHT22;8595;52.542;11.974;2023-02-22T04:33:10;8.80;99.90
16958;DHT22;8595;52.542;11.974;2023-02-22T04:35:38;8.90;99.90
16958;DHT22;8595;52.542;11.974;2023-02-22T04:38:06;8.80;99.90
16958;DHT22;8595;52.542;11.974;2023-02-22T04:40:35;8.90;99.90
16958;DHT22;8595;52.542;11.974;2023-02-22T04:43:04;8.80;99.90
16958;DHT22;8595;52.542;11.974;2023-02-22T04:45:31;8.80;99.90
16958;DHT22;8595;52.542;11.974;2023-02-22T04:47:57;8.70;99.90
16958;DHT22;8595;52.542;11.974;2023-02-22T04:50:24;8.70;99.90
16958;DHT22;8595;52.542;11.974;2023-02-22T04:52:52;8.70;99.90
16958;DHT22;8595;52.542;11.974;2023-02-22T04:55:19;8.70;99.90
16958;DHT22;8595;52.542;11.974;2023-02-22T04:57:47;8.70;99.90
16958;DHT22;8595;52.542;11.974;2023-02-22T05:00:17;8.80;99.90
16958;DHT22;8595;52.542;11.974;2023-02-22T05:02:46;8.80;99.90
16958;DHT22;8595;52.542;11.974;2023-02-22T05:05:15;8.80;99.90
16958;DHT22;8595;52.542;11.974;2023-02-22T05:07:41;8.80;99.90
16958;DHT22;8595;52.542;11.974;2023-02-22T05:10:09;8.80;99.90
16958;DHT22;8595;52.542;11.974;2023-02-22T05:12:37;8.80;99.90
16958;DHT22;8595;52.542;11.974;2023-02-22T05:15:06;8.80;99.90
16958;DHT22;8595;52.542;11.974;2023-02-22T05:17:35;8.80;99.90
16958;DHT22;8595;52.542;11.974;2023-02-22T05:20:02;8.80;99.90
16958;DHT22;8595;52.542;11.974;2023-02-22T05:22:29;8.80;99.90
16958;DHT22;8595;52.542;11.974;2023-02-22T05:24:58;8.80;99.90
16958;DHT22;8595;52.542;11.974;2023-02-22T05:27:25;8.80;99.90
16958;DHT22;8595;52.542;11.974;2023-02-22T05:29:51;8.80;99.90
16958;DHT22;8595;52.542;11.974;2023-02-22T05:32:18;8.80;99.90
16958;DHT22;8595;52.542;11.974;2023-02-22T05:34:47;8.80;99.90
16958;DHT22;8595;52.542;11.974;2023-02-22T05:37:13;8.80;99.90
16958;DHT22;8595;52.542;11.974;2023-02-22T05:39:40;8.80;99.90
16958;DHT22;8595;52.542;11.974;2023-02-22T05:42:07;8.80;99.90
16958;DHT22;8595;52.542;11.974;2023-02-22T05:44:34;8.70;99.90
16958;DHT22;8595;52.542;11.974;2023-02-22T05:47:01;8.70;99.90
16958;DHT22;8595;52.542;11.974;2023-02-22T05:49:28;8.70;99.90
16958;DHT22;8595;52.542;11.974;2023-02-22T05:51:56;8.70;99.90
16958;DHT22;8595;52.542;11.974;2023-02-22T05:54:24;8.70;99.90
16958;DHT22;8595;52.542;11.974;2023-02-22T05:56:51;8.70;99.90
16958;DHT22;8595;52.542;11.974;2023-02-22T05:59:18;8.70;99.90
16958;DHT22;8595;52.542;11.974;2023-02-22T06:01:45;8.70;99.90
16958;DHT22;8595;52.542;11.974;2023-02-22T06:04:12;8.70;99.90
16958;DHT22;8595;52.542;11.974;2023-02-22T06:06:39;8.70;99.90
16958;DHT22;8595;52.542;11.974;2023-02-22T06:09:07;8.70;99.90
16958;DHT22;8595;52.542;11.974;2023-02-22T06:11:33;8.70;99.90
16958;DHT22;8595;52.542;11.974;2023-02-22T06:14:01;8.70;99.90
16958;DHT22;8595;52.542;11.974;2023-02-22T06:16:28;8.70;99.90
16958;DHT22;8595;52.542;11.974;2023-02-22T06:18:56;8.60;99.90
16958;DHT22;8595;52.542;11.974;2023-02-22T06:21:24;8.60;99.90
16958;DHT22;8595;52.542;11.974;2023-02-22T06:23:51;8.60;99.90
16958;DHT22;8595;52.542;11.974;2023-02-22T06:26:19;8.60;99.90
16958;DHT22;8595;52.542;11.974;2023-02-22T06:28:47;8.60;99.90
16958;DHT22;8595;52.542;11.974;2023-02-22T06:31:16;8.60;99.90
16958;DHT22;8595;52.542;11.974;2023-02-22T06:33:43;8.50;99.90
16958;DHT22;8595;52.542;11.974;2023-02-22T06:36:12;8.60;99.90
16958;DHT22;8595;52.542;11.974;2023-02-22T06:38:39;8.60;99.90
16958;DHT22;8595;52.542;11.974;2023-02-22T06:41:07;8.60;99.90
16958;DHT22;8595;52.542;11.974;2023-02-22T06:43:36;8.60;99.90
16958;DHT22;8595;52.542;11.974;2023-02-22T06:46:03;8.60;99.90
16958;DHT22;8595;52.542;11.974;2023-02-22T06:48:29;8.60;99.90
16958;DHT22;8595;52.542;11.974;2023-02-22T06:50:56;8.60;99.90
16958;DHT22;8595;52.542;11.974;2023-02-22T06:53:23;8.60;99.90
16958;DHT22;8595;52.542;11.974;2023-02-22T06:55:52;8.60;99.90
16958;DHT22;8595;52.542;11.974;2023-02-22T06:58:19;8.60;99.90
16958;DHT22;8595;52.542;11.974;2023-02-22T07:00:47;8.50;99.90
16958;DHT22;8595;52.542;11.974;2023-02-22T07:03:14;8.50;99.90
16958;DHT22;8595;52.542;11.974;2023-02-22T07:05:41;8.40;99.90
16958;DHT22;8595;52.542;11.974;2023-02-22T07:08:09;8.40;99.90
16958;DHT22;8595;52.542;11.974;2023-02-22T07:10:37;8.40;99.90
16958;DHT22;8595;52.542;11.974;2023-02-22T07:13:06;8.50;99.90
16958;DHT22;8595;52.542;11.974;2023-02-22T07:15:35;8.50;99.90
16958;DHT22;8595;52.542;11.974;2023-02-22T07:18:03;8.50;99.90
16958;DHT22;8595;52.542;11.974;2023-02-22T07:20:30;8.60;99.90
16958;DHT22;8595;52.542;11.974;2023-02-22T07:22:59;8.60;99.90
16958;DHT22;8595;52.542;11.974;2023-02-22T07:25:25;8.60;99.90
16958;DHT22;8595;52.542;11.974;2023-02-22T07:27:52;8.60;99.90
16958;DHT22;8595;52.542;11.974;2023-02-22T07:30:20;8.60;99.90
16958;DHT22;8595;52.542;11.974;2023-02-22T07:32:50;8.60;99.90
16958;DHT22;8595;52.542;11.974;2023-02-22T07:35:20;8.60;99.90
16958;DHT22;8595;52.542;11.974;2023-02-22T07:37:47;8.60;99.90
16958;DHT22;8595;52.542;11.974;2023-02-22T07:40:14;8.70;99.90
16958;DHT22;8595;52.542;11.974;2023-02-22T07:42:55;8.60;99.90
16958;DHT22;8595;52.542;11.974;2023-02-22T07:45:26;8.70;99.90
16958;DHT22;8595;52.542;11.974;2023-02-22T07:47:53;8.80;99.90
16958;DHT22;8595;52.542;11.974;2023-02-22T07:50:22;8.80;99.90
16958;DHT22;8595;52.542;11.974;2023-02-22T07:52:52;8.90;99.90
16958;DHT22;8595;52.542;11.974;2023-02-22T07:55:29;8.90;99.90
16958;DHT22;8595;52.542;11.974;2023-02-22T07:58:00;8.90;99.90
16958;DHT22;8595;52.542;11.974;2023-02-22T08:00:28;8.80;99.90
16958;DHT22;8595;52.542;11.974;2023-02-22T08:02:57;8.90;99.90
16958;DHT22;8595;52.542;11.974;2023-02-22T08:05:26;8.90;99.90
16958;DHT22;8595;52.542;11.974;2023-02-22T08:07:54;8.90;99.90
16958;DHT22;8595;52.542;11.974;2023-02-22T08:10:22;8.90;99.90
16958;DHT22;8595;52.542;11.974;2023-02-22T08:12:50;8.90;99.90
16958;DHT22;8595;52.542;11.974;2023-02-22T08:15:19;8.90;99.90
16958;DHT22;8595;52.542;11.974;2023-02-22T08:17:45;9.00;99.90
16958;DHT22;8595;52.542;11.974;2023-02-22T08:20:12;9.00;99.90
16958;DHT22;8595;52.542;11.974;2023-02-22T08:22:43;9.10;99.90
16958;DHT22;8595;52.542;11.974;2023-02-22T08:25:10;9.10;99.90
16958;DHT22;8595;52.542;11.974;2023-02-22T08:27:37;9.10;99.90
16958;DHT22;8595;52.542;11.974;2023-02-22T08:30:04;9.10;99.90
16958;DHT22;8595;52.542;11.974;2023-02-22T08:32:32;9.10;99.90
16958;DHT22;8595;52.542;11.974;2023-02-22T08:35:00;9.10;99.90
16958;DHT22;8595;52.542;11.974;2023-02-22T08:37:27;9.20;99.90
16958;DHT22;8595;52.542;11.974;2023-02-22T08:39:55;9.20;99.90
16958;DHT22;8595;52.542;11.974;2023-02-22T08:42:22;9.20;99.90
16958;DHT22;8595;52.542;11.974;2023-02-22T08:44:50;9.20;99.90
16958;DHT22;8595;52.542;11.974;2023-02-22T08:47:16;9.30;99.90
16958;DHT22;8595;52.542;11.974;2023-02-22T08:49:44;9.20;99.90
16958;DHT22;8595;52.542;11.974;2023-02-22T08:52:11;9.20;99.90
16958;DHT22;8595;52.542;11.974;2023-02-22T08:54:38;9.30;99.90
16958;DHT22;8595;52.542;11.974;2023-02-22T08:57:06;9.40;99.90
16958;DHT22;8595;52.542;11.974;2023-02-22T08:59:33;9.40;99.90
16958;DHT22;8595;52.542;11.974;2023-02-22T09:02:00;9.40;99.90
16958;DHT22;8595;52.542;11.974;2023-02-22T09:04:33;9.50;99.90
16958;DHT22;8595;52.542;11.974;2023-02-22T09:07:01;9.50;99.90
16958;DHT22;8595;52.542;11.974;2023-02-22T09:09:29;9.50;99.90
16958;DHT22;8595;52.542;11.974;2023-02-22T09:12:03;9.60;99.90
16958;DHT22;8595;52.542;11.974;2023-02-22T09:14:31;9.60;99.90
16958;DHT22;8595;52.542;11.974;2023-02-22T09:16:58;9.60;99.90
16958;DHT22;8595;52.542;11.974;2023-02-22T09:19:26;9.60;99.90
16958;DHT22;8595;52.542;11.974;2023-02-22T09:21:53;9.70;99.90
16958;DHT22;8595;52.542;11.974;2023-02-22T09:24:21;9.70;99.90
16958;DHT22;8595;52.542;11.974;2023-02-22T09:26:48;9.80;99.90
16958;DHT22;8595;52.542;11.974;2023-02-22T09:29:19;9.80;99.90
16958;DHT22;8595;52.542;11.974;2023-02-22T09:31:49;9.90;99.90
16958;DHT22;8595;52.542;11.974;2023-02-22T09:34:18;10.00;99.90
16958;DHT22;8595;52.542;11.974;2023-02-22T09:36:54;10.20;99.90
16958;DHT22;8595;52.542;11.974;2023-02-22T09:39:23;10.30;99.90
16958;DHT22;8595;52.542;11.974;2023-02-22T09:41:55;10.40;99.90
16958;DHT22;8595;52.542;11.974;2023-02-22T09:44:33;10.40;99.90
16958;DHT22;8595;52.542;11.974;2023-02-22T09:47:06;10.40;99.90
16958;DHT22;8595;52.542;11.974;2023-02-22T09:49:42;10.30;99.90
16958;DHT22;8595;52.542;11.974;2023-02-22T09:52:15;10.30;99.90
16958;DHT22;8595;52.542;11.974;2023-02-22T09:54:46;10.40;99.90
16958;DHT22;8595;52.542;11.974;2023-02-22T09:57:19;10.40;99.90
16958;DHT22;8595;52.542;11.974;2023-02-22T09:59:58;10.60;99.90
16958;DHT22;8595;52.542;11.974;2023-02-22T10:02:45;10.70;99.90
16958;DHT22;8595;52.542;11.974;2023-02-22T10:05:18;10.80;99.90
16958;DHT22;8595;52.542;11.974;2023-02-22T10:07:51;10.80;99.90
16958;DHT22;8595;52.542;11.974;2023-02-22T10:10:21;10.90;99.90
16958;DHT22;8595;52.542;11.974;2023-02-22T10:12:56;10.90;99.90
16958;DHT22;8595;52.542;11.974;2023-02-22T10:15:35;11.00;99.90
16958;DHT22;8595;52.542;11.974;2023-02-22T10:18:40;11.00;99.90
16958;DHT22;8595;52.542;11.974;2023-02-22T10:21:14;11.00;99.90
16958;DHT22;8595;52.542;11.974;2023-02-22T10:23:53;11.00;99.90
16958;DHT22;8595;52.542;11.974;2023-02-22T10:26:24;11.00;99.90
16958;DHT22;8595;52.542;11.974;2023-02-22T10:28:55;11.00;99.90
16958;DHT22;8595;52.542;11.974;2023-02-22T10:31:29;11.10;99.90
16958;DHT22;8595;52.542;11.974;2023-02-22T10:34:01;11.20;99.90
16958;DHT22;8595;52.542;11.974;2023-02-22T10:36:28;11.30;99.90
16958;DHT22;8595;52.542;11.974;2023-02-22T10:38:58;11.30;99.90
16958;DHT22;8595;52.542;11.974;2023-02-22T10:41:29;11.30;99.90
16958;DHT22;8595;52.542;11.974;2023-02-22T10:43:57;11.30;99.90
16958;DHT22;8595;52.542;11.974;2023-02-22T10:46:27;11.40;99.90
16958;DHT22;8595;52.542;11.974;2023-02-22T10:48:59;11.70;99.90
16958;DHT22;8595;52.542;11.974;2023-02-22T10:51:28;11.80;99.90
16958;DHT22;8595;52.542;11.974;2023-02-22T10:53:58;11.80;99.90
16958;DHT22;8595;52.542;11.974;2023-02-22T10:56:28;11.90;99.90
16958;DHT22;8595;52.542;11.974;2023-02-22T10:58:57;12.00;99.90
16958;DHT22;8595;52.542;11.974;2023-02-22T11:01:34;12.00;99.90
16958;DHT22;8595;52.542;11.974;2023-02-22T11:04:10;11.80;99.90
16958;DHT22;8595;52.542;11.974;2023-02-22T11:06:42;11.80;99.90
16958;DHT22;8595;52.542;11.974;2023-02-22T11:09:12;11.90;99.90
16958;DHT22;8595;52.542;11.974;2023-02-22T11:11:41;11.80;99.90
16958;DHT22;8595;52.542;11.974;2023-02-22T11:14:09;11.80;99.90
16958;DHT22;8595;52.542;11.974;2023-02-22T11:16:38;11.70;99.90
16958;DHT22;8595;52.542;11.974;2023-02-22T11:19:15;11.60;99.90
16958;DHT22;8595;52.542;11.974;2023-02-22T11:21:45;11.50;99.90
16958;DHT22;8595;52.542;11.974;2023-02-22T11:24:13;11.60;99.90
16958;DHT22;8595;52.542;11.974;2023-02-22T11:26:44;11.60;99.90
16958;DHT22;8595;52.542;11.974;2023-02-22T11:29:19;11.80;99.90
16958;DHT22;8595;52.542;11.974;2023-02-22T11:31:47;11.70;99.90
16958;DHT22;8595;52.542;11.974;2023-02-22T11:34:27;11.70;99.90
16958;DHT22;8595;52.542;11.974;2023-02-22T11:36:56;11.90;99.90
16958;DHT22;8595;52.542;11.974;2023-02-22T11:39:28;12.00;99.90
16958;DHT22;8595;52.542;11.974;2023-02-22T11:42:17;12.10;99.90
16958;DHT22;8595;52.542;11.974;2023-02-22T11:44:45;12.20;99.90
16958;DHT22;8595;52.542;11.974;2023-02-22T11:47:12;12.30;99.90
16958;DHT22;8595;52.542;11.974;2023-02-22T11:49:42;12.40;99.90
16958;DHT22;8595;52.542;11.974;2023-02-22T11:52:18;12.40;99.90
16958;DHT22;8595;52.542;11.974;2023-02-22T11:54:58;12.60;99.90
16958;DHT22;8595;52.542;11.974;2023-02-22T11:57:38;12.70;99.90
16958;DHT22;8595;52.542;11.974;2023-02-22T12:00:18;12.80;99.90
16958;DHT22;8595;52.542;11.974;2023-02-22T12:03:12;12.80;99.90
16958;DHT22;8595;52.542;11.974;2023-02-22T12:05:55;13.20;99.90
16958;DHT22;8595;52.542;11.974;2023-02-22T12:08:35;13.50;99.90
16958;DHT22;8595;52.542;11.974;2023-02-22T12:11:13;13.50;99.90
16958;DHT22;8595;52.542;11.974;2023-02-22T12:13:55;13.60;99.90
16958;DHT22;8595;52.542;11.974;2023-02-22T12:16:36;13.70;99.90
16958;DHT22;8595;52.542;11.974;2023-02-22T12:19:14;13.60;99.90
16958;DHT22;8595;52.542;11.974;2023-02-22T12:21:52;13.40;99.90
16958;DHT22;8595;52.542;11.974;2023-02-22T12:24:29;13.20;99.90
16958;DHT22;8595;52.542;11.974;2023-02-22T12:27:10;13.20;99.90
16958;DHT22;8595;52.542;11.974;2023-02-22T12:29:43;13.10;99.90
16958;DHT22;8595;52.542;11.974;2023-02-22T12:32:15;12.90;99.90
16958;DHT22;8595;52.542;11.974;2023-02-22T12:34:47;12.80;99.90
16958;DHT22;8595;52.542;11.974;2023-02-22T12:37:20;12.90;99.90
16958;DHT22;8595;52.542;11.974;2023-02-22T12:39:57;12.80;99.90
16958;DHT22;8595;52.542;11.974;2023-02-22T12:42:31;12.60;99.90
16958;DHT22;8595;52.542;11.974;2023-02-22T12:45:03;12.70;99.90
16958;DHT22;8595;52.542;11.974;2023-02-22T12:47:36;12.90;99.90
16958;DHT22;8595;52.542;11.974;2023-02-22T12:50:12;13.00;99.90
16958;DHT22;8595;52.542;11.974;2023-02-22T12:52:48;13.30;99.90
16958;DHT22;8595;52.542;11.974;2023-02-22T12:55:20;13.70;99.90
16958;DHT22;8595;52.542;11.974;2023-02-22T12:57:54;13.90;99.90
16958;DHT22;8595;52.542;11.974;2023-02-22T13:00:26;14.10;99.90
16958;DHT22;8595;52.542;11.974;2023-02-22T13:02:57;14.40;99.90
16958;DHT22;8595;52.542;11.974;2023-02-22T13:05:25;14.50;99.90
16958;DHT22;8595;52.542;11.974;2023-02-22T13:08:02;14.40;99.90
16958;DHT22;8595;52.542;11.974;2023-02-22T13:10:56;14.20;99.90
16958;DHT22;8595;52.542;11.974;2023-02-22T13:13:33;13.90;99.90
16958;DHT22;8595;52.542;11.974;2023-02-22T13:16:06;13.70;99.90
16958;DHT22;8595;52.542;11.974;2023-02-22T13:18:44;13.70;99.90
16958;DHT22;8595;52.542;11.974;2023-02-22T13:21:16;13.50;99.90
16958;DHT22;8595;52.542;11.974;2023-02-22T13:23:51;13.50;99.90
16958;DHT22;8595;52.542;11.974;2023-02-22T13:26:23;13.30;99.90
16958;DHT22;8595;52.542;11.974;2023-02-22T13:28:56;13.30;99.90
16958;DHT22;8595;52.542;11.974;2023-02-22T13:31:44;13.20;99.90
16958;DHT22;8595;52.542;11.974;2023-02-22T13:34:46;13.00;99.90
16958;DHT22;8595;52.542;11.974;2023-02-22T13:37:37;13.00;99.90
16958;DHT22;8595;52.542;11.974;2023-02-22T13:40:33;12.90;99.90
16958;DHT22;8595;52.542;11.974;2023-02-22T13:43:17;13.00;99.90
16958;DHT22;8595;52.542;11.974;2023-02-22T13:46:13;13.00;99.90
16958;DHT22;8595;52.542;11.974;2023-02-22T13:49:10;13.00;99.90
16958;DHT22;8595;52.542;11.974;2023-02-22T13:51:47;13.00;99.90
16958;DHT22;8595;52.542;11.974;2023-02-22T13:54:20;12.80;99.90
16958;DHT22;8595;52.542;11.974;2023-02-22T13:57:23;12.70;99.90
16958;DHT22;8595;52.542;11.974;2023-02-22T14:00:22;12.80;99.90
16958;DHT22;8595;52.542;11.974;2023-02-22T14:03:00;12.70;99.90
16958;DHT22;8595;52.542;11.974;2023-02-22T14:05:35;12.70;99.90
16958;DHT22;8595;52.542;11.974;2023-02-22T14:08:02;12.80;99.90
16958;DHT22;8595;52.542;11.974;2023-02-22T14:10:47;12.70;99.90
16958;DHT22;8595;52.542;11.974;2023-02-22T14:13:17;12.90;99.90
16958;DHT22;8595;52.542;11.974;2023-02-22T14:16:19;12.90;99.90
16958;DHT22;8595;52.542;11.974;2023-02-22T14:18:49;13.00;99.90
16958;DHT22;8595;52.542;11.974;2023-02-22T14:21:25;12.90;99.90
16958;DHT22;8595;52.542;11.974;2023-02-22T14:23:55;12.90;99.90
16958;DHT22;8595;52.542;11.974;2023-02-22T14:26:32;12.80;99.90
16958;DHT22;8595;52.542;11.974;2023-02-22T14:29:14;12.80;99.90
16958;DHT22;8595;52.542;11.974;2023-02-22T14:31:59;12.70;99.90
16958;DHT22;8595;52.542;11.974;2023-02-22T14:34:48;12.60;99.90
16958;DHT22;8595;52.542;11.974;2023-02-22T14:37:20;12.50;99.90
16958;DHT22;8595;52.542;11.974;2023-02-22T14:39:51;12.40;99.90
16958;DHT22;8595;52.542;11.974;2023-02-22T14:42:22;12.30;99.90
16958;DHT22;8595;52.542;11.974;2023-02-22T14:44:56;12.30;99.90
16958;DHT22;8595;52.542;11.974;2023-02-22T14:47:28;12.20;99.90
16958;DHT22;8595;52.542;11.974;2023-02-22T14:50:03;12.10;99.90
16958;DHT22;8595;52.542;11.974;2023-02-22T14:52:34;12.10;99.90
16958;DHT22;8595;52.542;11.974;2023-02-22T14:55:15;12.00;99.90
16958;DHT22;8595;52.542;11.974;2023-02-22T14:57:48;12.00;99.90
16958;DHT22;8595;52.542;11.974;2023-02-22T15:00:22;12.00;99.90
16958;DHT22;8595;52.542;11.974;2023-02-22T15:02:56;11.90;99.90
16958;DHT22;8595;52.542;11.974;2023-02-22T15:05:25;11.80;99.90
16958;DHT22;8595;52.542;11.974;2023-02-22T15:07:55;11.80;99.90
16958;DHT22;8595;52.542;11.974;2023-02-22T15:10:26;11.70;99.90
16958;DHT22;8595;52.542;11.974;2023-02-22T15:12:56;11.70;99.90
16958;DHT22;8595;52.542;11.974;2023-02-22T15:15:36;11.70;99.90
16958;DHT22;8595;52.542;11.974;2023-02-22T15:18:10;11.60;99.90
16958;DHT22;8595;52.542;11.974;2023-02-22T15:20:39;11.60;99.90
16958;DHT22;8595;52.542;11.974;2023-02-22T15:23:07;11.50;99.90
16958;DHT22;8595;52.542;11.974;2023-02-22T15:25:34;11.40;99.90
16958;DHT22;8595;52.542;11.974;2023-02-22T15:28:04;11.30;99.90
16958;DHT22;8595;52.542;11.974;2023-02-22T15:30:35;11.30;99.90
16958;DHT22;8595;52.542;11.974;2023-02-22T15:33:14;11.20;99.90
16958;DHT22;8595;52.542;11.974;2023-02-22T15:35:42;11.10;99.90
16958;DHT22;8595;52.542;11.974;2023-02-22T15:38:18;11.00;99.90
16958;DHT22;8595;52.542;11.974;2023-02-22T15:40:47;11.10;99.90
16958;DHT22;8595;52.542;11.974;2023-02-22T15:43:25;10.90;99.90
16958;DHT22;8595;52.542;11.974;2023-02-22T15:45:55;10.80;99.90
16958;DHT22;8595;52.542;11.974;2023-02-22T15:48:22;10.70;99.90
16958;DHT22;8595;52.542;11.974;2023-02-22T15:51:05;10.80;99.90
16958;DHT22;8595;52.542;11.974;2023-02-22T15:53:41;10.70;99.90
16958;DHT22;8595;52.542;11.974;2023-02-22T15:56:11;10.70;99.90
16958;DHT22;8595;52.542;11.974;2023-02-22T15:58:41;10.60;99.90
16958;DHT22;8595;52.542;11.974;2023-02-22T16:01:13;10.60;99.90
16958;DHT22;8595;52.542;11.974;2023-02-22T16:03:43;10.50;99.90
16958;DHT22;8595;52.542;11.974;2023-02-22T16:06:23;10.40;99.90
16958;DHT22;8595;52.542;11.974;2023-02-22T16:08:53;10.40;99.90
16958;DHT22;8595;52.542;11.974;2023-02-22T16:11:23;10.40;99.90
16958;DHT22;8595;52.542;11.974;2023-02-22T16:13:58;10.40;99.90
16958;DHT22;8595;52.542;11.974;2023-02-22T16:16:31;10.30;99.90